createdAt,value
2019-02-03T00:01:22.775Z,5.90
2019-02-03T00:03:51.944Z,5.90
2019-02-03T00:06:21.117Z,5.80
2019-02-03T00:08:50.327Z,5.80
2019-02-03T00:11:19.687Z,5.80
2019-02-03T00:13:49.009Z,5.80
2019-02-03T00:16:18.213Z,5.90
2019-02-03T00:18:47.463Z,5.80
2019-02-03T00:21:16.774Z,5.80
2019-02-03T00:23:46.314Z,5.80
2019-02-03T00:26:17.625Z,5.80
2019-02-03T00:28:46.410Z,5.80
2019-02-03T00:31:15.589Z,5.80
2019-02-03T00:33:44.848Z,5.80
2019-02-03T00:36:14.017Z,5.80
2019-02-03T00:38:43.257Z,5.80
2019-02-03T00:41:12.578Z,5.80
2019-02-03T00:43:41.885Z,5.80
2019-02-03T00:46:11.112Z,5.80
2019-02-03T00:48:40.267Z,5.80
2019-02-03T00:51:10.082Z,5.80
2019-02-03T00:53:39.413Z,5.80
2019-02-03T00:56:08.577Z,5.70
2019-02-03T00:58:37.748Z,5.70
2019-02-03T01:01:07.111Z,5.60
2019-02-03T01:03:36.656Z,5.50
2019-02-03T01:06:06.453Z,5.40
2019-02-03T01:08:35.685Z,5.30
2019-02-03T01:11:04.913Z,5.40
2019-02-03T01:13:34.068Z,5.30
2019-02-03T01:16:03.375Z,5.30
2019-02-03T01:18:32.821Z,5.40
2019-02-03T01:21:03.145Z,5.30
2019-02-03T01:23:32.333Z,5.40
2019-02-03T01:26:02.645Z,5.40
2019-02-03T01:28:31.890Z,5.40
2019-02-03T01:31:01.515Z,5.30
2019-02-03T01:33:30.703Z,5.30
2019-02-03T01:36:01.587Z,5.40
2019-02-03T01:38:31.098Z,5.40
2019-02-03T01:41:00.251Z,5.40
2019-02-03T01:43:29.372Z,5.30
2019-02-03T01:45:58.617Z,5.40
2019-02-03T01:48:28.860Z,5.20
2019-02-03T01:50:58.055Z,5.20
2019-02-03T01:53:27.311Z,5.30
2019-02-03T01:55:56.572Z,5.30
2019-02-03T01:58:26.148Z,5.30
2019-02-03T02:00:55.318Z,5.30
2019-02-03T02:03:24.524Z,5.30
2019-02-03T02:05:53.685Z,5.30
2019-02-03T02:08:22.843Z,5.30
2019-02-03T02:10:52.115Z,5.30
2019-02-03T02:13:21.333Z,5.30
2019-02-03T02:15:50.485Z,5.30
2019-02-03T02:18:19.706Z,5.30
2019-02-03T02:20:49.025Z,5.30
2019-02-03T02:23:18.241Z,5.30
2019-02-03T02:25:47.880Z,5.30
2019-02-03T02:28:17.091Z,5.30
2019-02-03T02:30:46.240Z,5.30
2019-02-03T02:33:15.457Z,5.20
2019-02-03T02:35:44.667Z,5.20
2019-02-03T02:38:13.825Z,5.20
2019-02-03T02:40:43.351Z,5.20
2019-02-03T02:43:12.507Z,5.10
2019-02-03T02:45:41.682Z,5.20
2019-02-03T02:48:10.993Z,5.20
2019-02-03T02:50:42.711Z,5.20
2019-02-03T02:53:12.288Z,5.20
2019-02-03T02:55:41.465Z,5.20
2019-02-03T02:58:10.727Z,5.10
2019-02-03T03:00:39.988Z,5.00
2019-02-03T03:03:09.220Z,5.10
2019-02-03T03:05:38.420Z,5.10
2019-02-03T03:08:18.218Z,5.10
2019-02-03T03:10:38.636Z,5.10
2019-02-03T03:13:07.868Z,5.00
2019-02-03T03:15:37.086Z,5.00
2019-02-03T03:18:06.462Z,5.00
2019-02-03T03:20:36.114Z,5.00
2019-02-03T03:23:05.520Z,5.00
2019-02-03T03:25:34.665Z,5.00
2019-02-03T03:28:03.981Z,4.90
2019-02-03T03:30:33.204Z,4.90
2019-02-03T03:33:02.329Z,4.90
2019-02-03T03:35:34.067Z,4.90
2019-02-03T03:38:02.428Z,4.80
2019-02-03T03:40:31.569Z,4.80
2019-02-03T03:43:00.695Z,4.80
2019-02-03T03:45:29.924Z,4.80
2019-02-03T03:47:59.622Z,4.80
2019-02-03T03:50:28.778Z,4.80
2019-02-03T03:52:57.900Z,4.80
2019-02-03T03:55:27.228Z,4.80
2019-02-03T03:57:56.481Z,4.80
2019-02-03T04:00:27.292Z,4.80
2019-02-03T04:02:56.701Z,4.80
2019-02-03T04:05:25.876Z,4.80
2019-02-03T04:07:55.078Z,4.80
2019-02-03T04:10:24.791Z,4.70
2019-02-03T04:12:54.026Z,4.70
2019-02-03T04:15:23.597Z,4.60
2019-02-03T04:17:52.780Z,4.70
2019-02-03T04:20:28.320Z,4.70
2019-02-03T04:22:57.452Z,4.70
2019-02-03T04:25:26.698Z,4.70
2019-02-03T04:27:56.389Z,4.60
2019-02-03T04:30:26.488Z,4.60
2019-02-03T04:32:55.883Z,4.60
2019-02-03T04:35:25.100Z,4.70
2019-02-03T04:37:54.296Z,4.70
2019-02-03T04:40:23.894Z,4.70
2019-02-03T04:42:53.025Z,4.70
2019-02-03T04:45:23.452Z,4.70
2019-02-03T04:47:52.650Z,4.60
2019-02-03T04:50:22.303Z,4.60
2019-02-03T04:52:51.513Z,4.60
2019-02-03T04:55:21.572Z,4.60
2019-02-03T04:57:50.715Z,4.50
2019-02-03T05:00:21.915Z,4.50
2019-02-03T05:02:51.238Z,4.50
2019-02-03T05:05:20.936Z,4.60
2019-02-03T05:07:50.151Z,4.60
2019-02-03T05:10:20.464Z,4.60
2019-02-03T05:12:49.676Z,4.50
2019-02-03T05:15:21.389Z,4.50
2019-02-03T05:17:50.635Z,4.50
2019-02-03T05:20:25.659Z,4.50
2019-02-03T05:22:54.804Z,4.50
2019-02-03T05:25:24.030Z,4.40
2019-02-03T05:27:53.244Z,4.50
2019-02-03T05:30:27.572Z,4.40
2019-02-03T05:32:56.708Z,4.40
2019-02-03T05:35:26.050Z,4.40
2019-02-03T05:37:55.292Z,4.40
2019-02-03T05:40:24.747Z,4.40
2019-02-03T05:42:53.905Z,4.40
2019-02-03T05:45:23.074Z,4.30
2019-02-03T05:47:52.616Z,4.30
2019-02-03T05:50:22.324Z,4.30
2019-02-03T05:52:51.531Z,4.30
2019-02-03T05:55:20.852Z,4.30
2019-02-03T05:57:50.023Z,4.30
2019-02-03T06:00:27.376Z,4.30
2019-02-03T06:02:56.539Z,4.30
2019-02-03T06:05:25.725Z,4.30
2019-02-03T06:07:54.917Z,4.20
2019-02-03T06:10:24.184Z,4.10
2019-02-03T06:12:53.435Z,4.10
2019-02-03T06:15:22.864Z,4.10
2019-02-03T06:17:52.080Z,4.10
2019-02-03T06:20:21.340Z,3.90
2019-02-03T06:22:50.514Z,4.00
2019-02-03T06:25:19.725Z,4.00
2019-02-03T06:27:49.346Z,4.00
2019-02-03T06:31:18.617Z,4.00
2019-02-03T06:33:56.928Z,4.10
2019-02-03T06:36:26.212Z,4.10
2019-02-03T06:38:55.869Z,3.90
2019-02-03T06:41:25.054Z,3.90
2019-02-03T06:43:54.183Z,3.90
2019-02-03T06:46:45.389Z,3.90
2019-02-03T06:49:19.991Z,3.90
2019-02-03T06:51:49.389Z,3.90
2019-02-03T06:54:18.620Z,3.80
2019-02-03T06:56:47.775Z,3.80
2019-02-03T06:59:18.792Z,3.80
2019-02-03T07:01:47.958Z,3.70
2019-02-03T07:04:17.645Z,3.70
2019-02-03T07:06:46.888Z,3.70
2019-02-03T07:09:17.826Z,3.70
2019-02-03T07:11:47.101Z,3.70
2019-02-03T07:14:16.224Z,3.70
2019-02-03T07:16:45.382Z,3.70
2019-02-03T07:19:14.916Z,3.70
2019-02-03T07:21:44.163Z,3.60
2019-02-03T07:24:13.372Z,3.60
2019-02-03T07:26:42.544Z,3.60
2019-02-03T07:29:11.882Z,3.60
2019-02-03T07:31:41.244Z,3.50
2019-02-03T07:34:10.435Z,3.50
2019-02-03T07:36:39.612Z,3.60
2019-02-03T07:39:09.899Z,3.50
2019-02-03T07:41:39.234Z,3.40
2019-02-03T07:44:08.577Z,3.40
2019-02-03T07:46:38.213Z,3.30
2019-02-03T07:49:07.668Z,3.30
2019-02-03T07:51:36.870Z,3.30
2019-02-03T07:54:08.414Z,3.20
2019-02-03T07:56:37.254Z,3.70
2019-02-03T07:59:06.520Z,3.80
2019-02-03T08:01:35.769Z,3.80
2019-02-03T08:04:05.687Z,3.80
2019-02-03T08:06:34.924Z,3.40
2019-02-03T08:09:05.757Z,3.50
2019-02-03T08:11:35.004Z,3.40
2019-02-03T08:14:04.988Z,3.40
2019-02-03T08:16:34.258Z,3.30
2019-02-03T08:19:03.504Z,3.40
2019-02-03T08:21:32.692Z,3.40
2019-02-03T08:24:01.928Z,3.40
2019-02-03T08:26:31.200Z,3.30
2019-02-03T08:29:00.532Z,3.20
2019-02-03T08:31:29.659Z,3.20
2019-02-03T08:33:59.089Z,3.10
2019-02-03T08:36:28.316Z,3.10
2019-02-03T08:38:57.494Z,3.10
2019-02-03T08:41:26.735Z,3.20
2019-02-03T08:43:56.029Z,3.10
2019-02-03T08:46:25.165Z,3.20
2019-02-03T08:48:54.437Z,3.10
2019-02-03T08:51:23.638Z,3.10
2019-02-03T08:53:52.880Z,3.10
2019-02-03T08:56:22.401Z,3.10
2019-02-03T08:58:51.571Z,3.20
2019-02-03T09:01:20.700Z,3.10
2019-02-03T09:03:50.008Z,3.20
2019-02-03T09:06:19.189Z,3.10
2019-02-03T09:08:48.374Z,3.10
2019-02-03T09:11:17.624Z,3.00
2019-02-03T09:13:46.877Z,3.10
2019-02-03T09:16:16.054Z,3.10
2019-02-03T09:18:45.212Z,3.20
2019-02-03T09:21:14.514Z,3.00
2019-02-03T09:23:43.672Z,3.10
2019-02-03T09:26:12.904Z,3.10
2019-02-03T09:28:42.282Z,3.10
2019-02-03T09:31:11.634Z,3.10
2019-02-03T09:33:41.140Z,3.10
2019-02-03T09:36:10.418Z,3.10
2019-02-03T09:38:39.893Z,3.10
2019-02-03T09:41:09.147Z,3.10
2019-02-03T09:43:38.310Z,3.20
2019-02-03T09:46:07.567Z,3.20
2019-02-03T09:48:38.708Z,3.30
2019-02-03T09:51:08.299Z,3.10
2019-02-03T09:53:37.559Z,3.10
2019-02-03T09:56:07.079Z,3.10
2019-02-03T09:58:36.276Z,3.20
2019-02-03T10:01:05.741Z,3.20
2019-02-03T10:03:35.084Z,3.20
2019-02-03T10:06:04.605Z,3.20
2019-02-03T10:08:40.774Z,3.20
2019-02-03T10:11:12.116Z,3.30
2019-02-03T10:13:36.096Z,3.20
2019-02-03T10:16:05.718Z,3.30
2019-02-03T10:18:36.854Z,3.30
2019-02-03T10:21:06.120Z,3.30
2019-02-03T10:23:36.402Z,3.40
2019-02-03T10:26:06.207Z,3.40
2019-02-03T10:28:35.479Z,3.40
2019-02-03T10:31:04.773Z,3.30
2019-02-03T10:33:34.165Z,3.30
2019-02-03T10:36:03.398Z,3.40
2019-02-03T10:38:32.551Z,3.40
2019-02-03T10:41:01.989Z,3.40
2019-02-03T10:43:31.373Z,3.30
2019-02-03T10:46:00.648Z,3.30
2019-02-03T10:48:29.919Z,3.30
2019-02-03T10:50:59.162Z,3.30
2019-02-03T10:53:28.505Z,3.30
2019-02-03T10:55:57.841Z,3.30
2019-02-03T10:58:26.993Z,3.30
2019-02-03T11:00:56.424Z,3.20
2019-02-03T11:03:25.592Z,3.30
2019-02-03T11:05:59.247Z,3.40
2019-02-03T11:08:27.253Z,3.40
2019-02-03T11:10:56.652Z,3.40
2019-02-03T11:13:25.915Z,3.50
2019-02-03T11:15:55.111Z,3.50
2019-02-03T11:18:24.425Z,3.40
2019-02-03T11:20:53.768Z,3.40
2019-02-03T11:23:23.104Z,3.40
2019-02-03T11:25:52.360Z,3.50
2019-02-03T11:28:21.703Z,3.40
2019-02-03T11:30:50.936Z,3.40
2019-02-03T11:33:20.428Z,3.40
2019-02-03T11:35:49.627Z,3.40
2019-02-03T11:38:18.895Z,3.40
2019-02-03T11:40:48.070Z,3.40
2019-02-03T11:43:17.342Z,3.40
2019-02-03T11:45:46.484Z,3.30
2019-02-03T11:48:21.526Z,3.40
2019-02-03T11:50:51.521Z,3.50
2019-02-03T11:53:23.919Z,3.40
2019-02-03T11:55:53.993Z,3.40
2019-02-03T11:58:23.521Z,3.40
2019-02-03T12:00:52.992Z,3.50
2019-02-03T12:03:22.272Z,3.50
2019-02-03T12:05:51.545Z,3.60
2019-02-03T12:08:20.912Z,3.60
2019-02-03T12:10:52.533Z,3.60
2019-02-03T12:13:22.251Z,3.50
2019-02-03T12:15:51.633Z,3.50
2019-02-03T12:18:23.518Z,3.50
2019-02-03T12:20:52.832Z,3.50
2019-02-03T12:23:22.070Z,3.50
2019-02-03T12:25:51.734Z,3.50
2019-02-03T12:28:20.911Z,3.50
2019-02-03T12:30:50.225Z,3.50
2019-02-03T12:33:19.466Z,3.60
2019-02-03T12:35:48.765Z,3.70
2019-02-03T12:38:17.974Z,3.70
2019-02-03T12:40:47.281Z,3.70
2019-02-03T12:43:16.559Z,3.70
2019-02-03T12:45:47.089Z,3.70
2019-02-03T12:48:16.346Z,3.70
2019-02-03T12:50:45.648Z,3.80
2019-02-03T12:53:15.583Z,3.80
2019-02-03T12:55:45.103Z,3.70
2019-02-03T12:58:14.376Z,3.70
2019-02-03T13:00:43.669Z,3.60
2019-02-03T13:03:12.953Z,3.60
2019-02-03T13:05:42.230Z,3.70
2019-02-03T13:08:12.862Z,3.70
2019-02-03T13:10:42.129Z,3.70
2019-02-03T13:13:11.311Z,3.70
2019-02-03T13:15:46.089Z,3.70
2019-02-03T13:18:15.624Z,3.70
2019-02-03T13:20:45.204Z,3.70
2019-02-03T13:23:14.595Z,3.80
2019-02-03T13:25:43.847Z,3.70
2019-02-03T13:28:13.173Z,3.70
2019-02-03T13:30:44.834Z,3.80
2019-02-03T13:33:15.135Z,3.80
2019-02-03T13:35:44.484Z,3.80
2019-02-03T13:38:13.722Z,3.70
2019-02-03T13:40:43.031Z,3.70
2019-02-03T13:43:12.598Z,3.80
2019-02-03T13:45:44.988Z,3.70
2019-02-03T13:48:13.461Z,3.80
2019-02-03T13:50:42.881Z,3.80
2019-02-03T13:53:12.209Z,3.80
2019-02-03T13:55:41.556Z,3.80
2019-02-03T13:58:12.651Z,3.70
2019-02-03T14:00:43.944Z,3.70
2019-02-03T14:03:13.277Z,3.70
2019-02-03T14:05:42.572Z,3.60
2019-02-03T14:08:11.857Z,3.70
2019-02-03T14:10:41.446Z,3.60
2019-02-03T14:13:10.973Z,3.70
2019-02-03T14:15:40.095Z,3.70
2019-02-03T14:18:09.426Z,3.70
2019-02-03T14:20:38.508Z,3.70
2019-02-03T14:23:07.648Z,3.70
2019-02-03T14:25:36.840Z,3.70
2019-02-03T14:28:06.144Z,3.70
2019-02-03T14:30:41.483Z,3.60
2019-02-03T14:33:11.426Z,3.50
2019-02-03T14:35:40.964Z,3.60
2019-02-03T14:38:10.414Z,3.70
2019-02-03T14:40:39.732Z,3.70
2019-02-03T14:43:09.029Z,3.70
2019-02-03T14:45:38.377Z,3.80
2019-02-03T14:48:08.139Z,3.80
2019-02-03T14:50:39.170Z,3.80
2019-02-03T14:53:11.102Z,3.80
2019-02-03T14:55:41.610Z,3.80
2019-02-03T14:58:10.892Z,3.70
2019-02-03T15:00:48.954Z,3.60
2019-02-03T15:03:21.613Z,3.70
2019-02-03T15:05:50.912Z,3.70
2019-02-03T15:08:21.629Z,3.70
2019-02-03T15:10:50.933Z,3.70
2019-02-03T15:13:20.149Z,3.70
2019-02-03T15:15:49.329Z,3.70
2019-02-03T15:18:18.660Z,3.70
2019-02-03T15:20:47.892Z,3.70
2019-02-03T15:23:17.139Z,3.70
2019-02-03T15:25:46.415Z,3.80
2019-02-03T15:28:16.820Z,3.70
2019-02-03T15:30:47.403Z,3.70
2019-02-03T15:33:16.651Z,3.70
2019-02-03T15:35:45.929Z,3.60
2019-02-03T15:38:16.214Z,3.70
2019-02-03T15:40:45.693Z,3.60
2019-02-03T15:43:24.979Z,3.60
2019-02-03T15:45:45.903Z,3.60
2019-02-03T15:48:15.161Z,3.60
2019-02-03T15:50:44.526Z,3.60
2019-02-03T15:53:13.821Z,3.60
2019-02-03T15:55:43.089Z,3.70
2019-02-03T15:58:13.769Z,3.60
2019-02-03T16:00:45.843Z,3.60
2019-02-03T16:03:15.286Z,3.60
2019-02-03T16:05:46.344Z,3.50
2019-02-03T16:08:15.511Z,3.50
2019-02-03T16:10:44.747Z,3.50
2019-02-03T16:13:14.050Z,3.50
2019-02-03T16:15:43.315Z,3.50
2019-02-03T16:18:12.949Z,3.60
2019-02-03T16:20:42.631Z,3.50
2019-02-03T16:23:12.142Z,3.60
2019-02-03T16:25:41.415Z,3.50
2019-02-03T16:28:10.680Z,3.50
2019-02-03T16:30:40.394Z,3.50
2019-02-03T16:33:10.394Z,3.50
2019-02-03T16:35:39.836Z,3.50
2019-02-03T16:38:22.081Z,3.50
2019-02-03T16:40:41.819Z,3.50
2019-02-03T16:43:11.195Z,3.50
2019-02-03T16:45:40.734Z,3.50
2019-02-03T16:48:10.014Z,3.40
2019-02-03T16:50:39.328Z,3.30
2019-02-03T16:53:10.343Z,3.40
2019-02-03T16:55:39.832Z,3.40
2019-02-03T16:58:09.169Z,3.40
2019-02-03T17:00:38.344Z,3.40
2019-02-03T17:03:08.061Z,3.50
2019-02-03T17:05:37.341Z,3.50
2019-02-03T17:08:07.605Z,3.50
2019-02-03T17:10:36.831Z,3.50
2019-02-03T17:13:06.294Z,3.50
2019-02-03T17:15:44.974Z,3.50
2019-02-03T17:18:14.716Z,3.50
2019-02-03T17:20:44.017Z,3.30
2019-02-03T17:23:13.740Z,3.40
2019-02-03T17:25:45.759Z,3.40
2019-02-03T17:28:15.389Z,3.40
2019-02-03T17:30:44.833Z,3.40
2019-02-03T17:33:14.304Z,3.40
2019-02-03T17:35:54.038Z,3.40
2019-02-03T17:38:14.549Z,3.40
2019-02-03T17:40:43.785Z,3.40
2019-02-03T17:43:13.135Z,3.40
2019-02-03T17:45:42.397Z,3.30
2019-02-03T17:48:11.646Z,3.40
2019-02-03T17:50:40.980Z,3.40
2019-02-03T17:53:10.250Z,3.50
2019-02-03T17:55:39.711Z,3.40
2019-02-03T17:58:08.897Z,3.30
2019-02-03T18:01:03.054Z,3.40
2019-02-03T18:03:32.390Z,3.40
2019-02-03T18:06:01.816Z,3.40
2019-02-03T18:08:32.063Z,3.40
2019-02-03T18:11:01.367Z,3.40
2019-02-03T18:13:32.100Z,3.40
2019-02-03T18:16:01.476Z,3.50
2019-02-03T18:18:30.887Z,3.40
2019-02-03T18:21:00.172Z,3.40
2019-02-03T18:23:29.491Z,3.40
2019-02-03T18:25:58.771Z,3.40
2019-02-03T18:28:28.076Z,3.30
2019-02-03T18:30:57.343Z,3.40
2019-02-03T18:33:27.038Z,3.30
2019-02-03T18:35:56.411Z,3.40
2019-02-03T18:38:25.703Z,3.30
2019-02-03T18:40:55.001Z,3.40
2019-02-03T18:43:24.271Z,3.40
2019-02-03T18:45:53.752Z,3.30
2019-02-03T18:48:23.107Z,3.40
2019-02-03T18:50:52.329Z,3.40
2019-02-03T18:53:21.645Z,3.40
2019-02-03T18:55:50.953Z,3.30
2019-02-03T18:58:20.098Z,3.30
2019-02-03T19:00:49.771Z,3.30
2019-02-03T19:03:19.329Z,3.40
2019-02-03T19:05:48.588Z,3.40
2019-02-03T19:08:17.869Z,3.30
2019-02-03T19:10:48.295Z,3.40
2019-02-03T19:13:17.591Z,3.30
2019-02-03T19:15:47.216Z,3.30
2019-02-03T19:18:16.453Z,3.40
2019-02-03T19:20:45.746Z,3.30
2019-02-03T19:23:15.044Z,3.30
2019-02-03T19:25:44.349Z,3.40
2019-02-03T19:28:13.638Z,3.30
2019-02-03T19:30:42.920Z,3.40
2019-02-03T19:33:12.247Z,3.30
2019-02-03T19:35:41.573Z,3.30
2019-02-03T19:38:11.106Z,3.30
2019-02-03T19:40:40.274Z,3.30
2019-02-03T19:43:09.771Z,3.30
2019-02-03T19:45:39.137Z,3.20
2019-02-03T19:48:09.400Z,3.20
2019-02-03T19:50:39.489Z,3.30
2019-02-03T19:53:09.512Z,3.30
2019-02-03T19:55:38.861Z,3.30
2019-02-03T19:58:08.854Z,3.30
2019-02-03T20:00:44.756Z,3.20
2019-02-03T20:03:14.008Z,3.30
2019-02-03T20:05:43.502Z,3.30
2019-02-03T20:08:13.269Z,3.40
2019-02-03T20:10:42.576Z,3.50
2019-02-03T20:13:11.944Z,3.40
2019-02-03T20:15:41.345Z,3.40
2019-02-03T20:18:10.706Z,3.40
2019-02-03T20:20:41.733Z,3.40
2019-02-03T20:23:11.558Z,3.30
2019-02-03T20:25:41.541Z,3.40
2019-02-03T20:28:10.958Z,3.40
2019-02-03T20:30:40.224Z,3.30
2019-02-03T20:33:09.469Z,3.40
2019-02-03T20:35:38.677Z,3.40
2019-02-03T20:38:08.555Z,3.50
2019-02-03T20:40:40.353Z,3.40
2019-02-03T20:43:09.677Z,3.40
2019-02-03T20:45:49.090Z,3.50
2019-02-03T20:48:10.814Z,3.40
2019-02-03T20:50:40.543Z,3.50
2019-02-03T20:53:09.873Z,3.40
2019-02-03T20:55:39.120Z,3.40
2019-02-03T20:58:08.419Z,3.30
2019-02-03T21:00:38.126Z,3.30
2019-02-03T21:03:08.812Z,3.30
2019-02-03T21:05:38.171Z,3.30
2019-02-03T21:08:07.440Z,3.30
2019-02-03T21:10:36.923Z,3.40
2019-02-03T21:13:11.250Z,3.40
2019-02-03T21:15:38.160Z,3.40
2019-02-03T21:18:08.128Z,3.50
2019-02-03T21:20:37.716Z,3.40
2019-02-03T21:23:07.085Z,3.40
2019-02-03T21:25:36.298Z,3.30
2019-02-03T21:28:05.899Z,3.30
2019-02-03T21:30:39.118Z,3.40
2019-02-03T21:33:08.692Z,3.50
2019-02-03T21:35:39.161Z,3.80
2019-02-03T21:38:09.432Z,3.80
2019-02-03T21:40:38.714Z,3.80
2019-02-03T21:43:09.770Z,3.80
2019-02-03T21:45:44.995Z,3.70
2019-02-03T21:48:10.335Z,3.70
2019-02-03T21:50:39.648Z,3.60
2019-02-03T21:53:08.943Z,3.60
2019-02-03T21:55:38.344Z,3.60
2019-02-03T21:58:08.087Z,3.50
2019-02-03T22:00:37.309Z,3.50
2019-02-03T22:03:06.564Z,3.40
2019-02-03T22:05:35.888Z,3.50
2019-02-03T22:08:05.710Z,3.30
2019-02-03T22:10:37.058Z,3.40
2019-02-03T22:13:06.690Z,3.30
2019-02-03T22:15:36.236Z,3.30
2019-02-03T22:18:06.299Z,3.30
2019-02-03T22:20:35.539Z,3.30
2019-02-03T22:23:05.083Z,3.40
2019-02-03T22:25:34.866Z,3.30
2019-02-03T22:28:04.488Z,3.30
2019-02-03T22:30:38.968Z,3.40
2019-02-03T22:33:08.918Z,3.40
2019-02-03T22:35:38.798Z,3.40
2019-02-03T22:38:09.086Z,3.40
2019-02-03T22:40:39.553Z,3.30
2019-02-03T22:43:08.693Z,3.40
2019-02-03T22:45:37.961Z,3.40
2019-02-03T22:48:07.901Z,3.40
2019-02-03T22:50:37.238Z,3.30
2019-02-03T22:53:08.477Z,3.40
2019-02-03T22:55:37.673Z,3.40
2019-02-03T22:58:06.968Z,3.40
2019-02-03T23:00:47.865Z,3.40
2019-02-03T23:03:17.460Z,3.30
2019-02-03T23:05:46.745Z,3.30
2019-02-03T23:08:15.919Z,3.40
2019-02-03T23:10:45.214Z,3.30
2019-02-03T23:13:14.464Z,3.40
2019-02-03T23:15:45.112Z,3.30
2019-02-03T23:18:14.319Z,3.30
2019-02-03T23:20:43.590Z,3.40
2019-02-03T23:23:12.917Z,3.40
2019-02-03T23:25:42.148Z,3.40
2019-02-03T23:28:11.393Z,3.50
2019-02-03T23:30:41.048Z,3.50
2019-02-03T23:33:10.291Z,3.40
2019-02-03T23:35:39.514Z,3.50
2019-02-03T23:38:08.862Z,3.40
2019-02-03T23:40:38.108Z,3.30
2019-02-03T23:43:07.273Z,3.30
2019-02-03T23:45:36.805Z,3.30
2019-02-03T23:48:06.072Z,3.30
2019-02-03T23:50:36.435Z,3.40
2019-02-03T23:53:05.712Z,3.40
2019-02-03T23:55:34.905Z,3.40
2019-02-03T23:58:04.124Z,3.40
